Time;durP1;ratioP1;P1;durP2;ratioP2;P2;SDS_P1;SDS_P2;PMS_P1;PMS_P2;Temp;Humidity;BMP_temperature;BMP_pressure;BME280_temperature;BME280_humidity;BME280_pressure;Samples;Min_cycle;Max_cycle;Signal;HPM_P1;HPM_P2
2023/12/05 00:02:34;;;;;;;;;;;;;;;3.16;100.00;100022.50;4876263;29;19920;-96
2023/12/05 00:05:13;;;;;;;;;;;;;;;3.13;100.00;100017.50;4871935;29;19951;-96
2023/12/05 00:07:48;;;;;;;;;;;;;;;3.12;100.00;100019.31;4916163;29;19916;-96
2023/12/05 00:10:17;;;;;;;;;;;;;;;3.09;100.00;100019.50;4907197;29;19926;-96
2023/12/05 00:12:52;;;;;;;;;;;;;;;3.07;100.00;100030.03;4890494;29;19918;-96
2023/12/05 00:15:51;;;;;;;;;;;;;;;3.06;100.00;100019.69;4883768;29;19915;-96
2023/12/05 00:18:37;;;;;;;;;;;;;;;3.07;100.00;100026.63;4897011;29;19923;-96
2023/12/05 00:21:06;;;;;;;;;;;;;;;3.09;100.00;100024.75;4882036;29;19927;-96
2023/12/05 00:23:46;;;;;;;;;;;;;;;3.11;100.00;100025.44;4885573;29;19919;-96
2023/12/05 00:26:15;;;;;;;;;;;;;;;3.10;100.00;100013.34;4873496;29;19915;-96
2023/12/05 00:28:52;;;;;;;;;;;;;;;3.14;100.00;100020.00;4908151;29;19915;-96
2023/12/05 00:31:20;;;;;;;;;;;;;;;3.14;100.00;100032.25;4872256;29;19916;-96
2023/12/05 00:33:58;;;;;;;;;;;;;;;3.13;100.00;100027.94;4894959;29;19922;-96
2023/12/05 00:36:32;;;;;;;;;;;;;;;3.16;100.00;100036.41;4881511;29;19958;-96
2023/12/05 00:39:00;;;;;;;;;;;;;;;3.17;100.00;100030.25;4872956;29;19938;-96
2023/12/05 00:41:28;;;;;;;;;;;;;;;3.17;100.00;100035.47;4880901;29;19970;-96
2023/12/05 00:43:54;;;;;;;;;;;;;;;3.19;100.00;100037.97;4888674;29;20002;-96
2023/12/05 00:46:26;;;;;;;;;;;;;;;3.17;100.00;100035.47;4868814;29;19915;-96
2023/12/05 00:49:35;;;;;;;;;;;;;;;3.16;100.00;100044.25;4859916;29;20278;-96
2023/12/05 00:52:33;;;;;;;;;;;;;;;3.18;100.00;100047.59;4883737;29;19915;-96
2023/12/05 00:55:16;;;;;;;;;;;;;;;3.20;100.00;100050.09;4890310;29;19919;-96
2023/12/05 00:57:48;;;;;;;;;;;;;;;3.20;100.00;100050.09;4897216;29;19926;-96
2023/12/05 01:00:37;;;;;;;;;;;;;;;3.17;100.00;100055.53;4883185;29;19950;-96
2023/12/05 01:03:56;;;;;;;;;;;;;;;3.14;100.00;100063.59;4921476;29;19941;-96
2023/12/05 01:07:14;;;;;;;;;;;;;;;;;;;;;
2023/12/05 01:10:51;;;;;;;;;;;;;;;3.06;100.00;100064.94;4925511;29;19979;-96
2023/12/05 01:16:40;;;;;;;;;;;;;;;;;;;;;
2023/12/05 01:19:08;;;;;;;;;;;;;;;3.00;100.00;100047.06;4921416;29;19915;-96
2023/12/05 01:21:43;;;;;;;;;;;;;;;3.00;100.00;100057.53;4906102;29;19919;-96
2023/12/05 01:24:57;;;;;;;;;;;;;;;2.98;100.00;100056.78;4895805;29;19915;-96
2023/12/05 01:27:40;;;;;;;;;;;;;;;2.97;100.00;100065.56;4899486;29;19940;-96
2023/12/05 01:30:43;;;;;;;;;;;;;;;2.94;100.00;100060.56;4892696;29;19926;-96
2023/12/05 01:33:09;;;;;;;;;;;;;;;2.95;100.00;100068.28;4885460;29;19931;-96
2023/12/05 01:35:47;;;;;;;;;;;;;;;2.94;100.00;100057.94;4892789;29;20010;-96
2023/12/05 01:38:42;;;;;;;;;;;;;;;2.94;100.00;100071.84;4893724;29;19922;-96
2023/12/05 01:41:13;;;;;;;;;;;;;;;2.95;100.00;100062.22;4895567;29;19919;-96
2023/12/05 01:43:39;;;;;;;;;;;;;;;2.97;100.00;100073.41;4886870;29;19919;-96
2023/12/05 01:46:05;;;;;;;;;;;;;;;2.96;100.00;100075.16;4887493;29;19943;-96
2023/12/05 01:48:32;;;;;;;;;;;;;;;2.94;100.00;100082.28;4886601;29;20330;-96
2023/12/05 01:51:06;;;;;;;;;;;;;;;2.92;100.00;100080.69;4886749;29;19919;-96
2023/12/05 01:53:36;;;;;;;;;;;;;;;2.84;100.00;100082.06;4902830;29;19949;-96
2023/12/05 01:56:22;;;;;;;;;;;;;;;2.70;100.00;100085.59;4895421;29;19957;-96
2023/12/05 01:58:53;;;;;;;;;;;;;;;2.56;100.00;100089.13;4895369;29;19981;-96
2023/12/05 02:01:29;;;;;;;;;;;;;;;2.44;100.00;100082.09;4869815;29;19965;-96
2023/12/05 02:03:57;;;;;;;;;;;;;;;2.32;100.00;100091.56;4901488;29;19967;-96
2023/12/05 02:06:47;;;;;;;;;;;;;;;2.19;100.00;100092.34;4885306;29;19948;-96
2023/12/05 02:09:22;;;;;;;;;;;;;;;2.12;100.00;100085.84;4905173;29;19911;-96
2023/12/05 02:12:38;;;;;;;;;;;;;;;2.05;100.00;100089.78;4895568;29;19931;-96
2023/12/05 02:19:04;;;;;;;;;;;;;;;1.93;100.00;100096.59;4891795;29;19999;-96
2023/12/05 02:21:32;;;;;;;;;;;;;;;1.94;100.00;100108.72;4871132;29;19923;-96
2023/12/05 02:24:07;;;;;;;;;;;;;;;1.95;100.00;100105.16;4891816;29;19915;-96
2023/12/05 02:26:33;;;;;;;;;;;;;;;1.95;100.00;100107.78;4864740;29;20292;-96
2023/12/05 02:29:02;;;;;;;;;;;;;;;1.96;100.00;100109.44;4882100;29;19922;-96
2023/12/05 02:31:27;;;;;;;;;;;;;;;1.95;100.00;100108.63;4870673;29;19916;-96
2023/12/05 02:34:02;;;;;;;;;;;;;;;1.93;100.00;100117.44;4892989;29;19946;-96
2023/12/05 02:36:32;;;;;;;;;;;;;;;1.88;100.00;100109.94;4881856;29;20006;-96
2023/12/05 02:39:30;;;;;;;;;;;;;;;1.82;100.00;100115.53;4894455;29;19915;-96
2023/12/05 02:41:56;;;;;;;;;;;;;;;1.77;100.00;100117.59;4878397;29;19963;-96
2023/12/05 02:44:53;;;;;;;;;;;;;;;;;;;;;
2023/12/05 02:47:39;;;;;;;;;;;;;;;1.68;100.00;100114.63;4890865;29;19915;-96
2023/12/05 02:50:46;;;;;;;;;;;;;;;1.61;100.00;100111.56;4891457;29;20006;-96
2023/12/05 02:53:11;;;;;;;;;;;;;;;1.55;100.00;100114.53;4891395;29;20002;-96
2023/12/05 02:55:38;;;;;;;;;;;;;;;1.53;100.00;100112.97;4881367;29;20426;-96
2023/12/05 02:58:16;;;;;;;;;;;;;;;1.51;100.00;100109.63;4885661;29;19919;-96
2023/12/05 03:01:09;;;;;;;;;;;;;;;1.45;100.00;100114.25;4895608;29;19920;-96
2023/12/05 03:03:35;;;;;;;;;;;;;;;1.44;100.00;100119.56;4882080;29;19923;-95
2023/12/05 03:06:00;;;;;;;;;;;;;;;1.45;100.00;100118.66;4878587;29;19955;-96
2023/12/05 03:08:34;;;;;;;;;;;;;;;1.45;100.00;100126.47;4863869;29;19923;-96
2023/12/05 03:11:00;;;;;;;;;;;;;;;1.41;100.00;100124.97;4879471;29;19955;-96
2023/12/05 03:13:26;;;;;;;;;;;;;;;1.39;100.00;100119.84;4886345;29;20030;-96
2023/12/05 03:15:51;;;;;;;;;;;;;;;1.41;100.00;100133.63;4868781;29;20374;-96
2023/12/05 03:18:17;;;;;;;;;;;;;;;1.43;100.00;100136.13;4883563;29;19916;-96
2023/12/05 03:20:43;;;;;;;;;;;;;;;1.49;100.00;100138.38;4868122;29;19954;-96
2023/12/05 03:23:08;;;;;;;;;;;;;;;1.53;100.00;100134.63;4872023;29;19919;-95
2023/12/05 03:25:34;;;;;;;;;;;;;;;1.58;100.00;100140.41;4866895;29;19990;-96
2023/12/05 03:28:00;;;;;;;;;;;;;;;1.55;100.00;100148.41;4874697;29;19922;-96
2023/12/05 03:30:25;;;;;;;;;;;;;;;1.53;100.00;100144.22;4867350;29;19915;-94
2023/12/05 03:32:51;;;;;;;;;;;;;;;1.50;100.00;100153.06;4894614;29;19923;-96
2023/12/05 03:35:16;;;;;;;;;;;;;;;1.44;100.00;100154.25;4868939;29;19968;-96
2023/12/05 03:37:42;;;;;;;;;;;;;;;1.42;100.00;100157.91;4868044;29;20006;-95
2023/12/05 03:40:08;;;;;;;;;;;;;;;1.40;100.00;100154.53;4888972;29;20388;-96
2023/12/05 03:42:34;;;;;;;;;;;;;;;1.38;100.00;100157.25;4867023;29;19927;-95
2023/12/05 03:44:59;;;;;;;;;;;;;;;1.38;100.00;100161.59;4908031;29;20378;-96
2023/12/05 03:47:26;;;;;;;;;;;;;;;1.33;100.00;100159.28;4879848;29;19922;-96
2023/12/05 03:49:51;;;;;;;;;;;;;;;1.34;100.00;100166.16;4877140;29;19916;-96
2023/12/05 03:52:17;;;;;;;;;;;;;;;1.33;100.00;100162.72;4866529;29;19922;-96
2023/12/05 03:54:43;;;;;;;;;;;;;;;1.42;100.00;100158.72;4899283;29;19922;-96
2023/12/05 03:57:09;;;;;;;;;;;;;;;1.46;100.00;100148.97;4883829;29;19920;-96
2023/12/05 03:59:34;;;;;;;;;;;;;;;1.50;100.00;100163.47;4884184;29;19919;-96
2023/12/05 04:02:00;;;;;;;;;;;;;;;1.56;100.00;100155.28;4883486;29;19919;-96
2023/12/05 04:04:26;;;;;;;;;;;;;;;1.65;100.00;100163.47;4886240;29;20339;-96
2023/12/05 04:06:51;;;;;;;;;;;;;;;1.66;100.00;100162.53;4898498;29;19998;-96
2023/12/05 04:09:17;;;;;;;;;;;;;;;1.65;100.00;100159.13;4902378;29;19997;-96
2023/12/05 04:11:43;;;;;;;;;;;;;;;1.62;100.00;100159.28;4880059;29;19919;-96
2023/12/05 04:14:08;;;;;;;;;;;;;;;1.59;100.00;100165.50;4913089;29;19942;-95
2023/12/05 04:16:35;;;;;;;;;;;;;;;1.56;100.00;100165.69;4871514;29;20417;-96
2023/12/05 04:19:00;;;;;;;;;;;;;;;1.53;100.00;100163.28;4899433;29;19922;-96
2023/12/05 04:21:26;;;;;;;;;;;;;;;1.55;100.00;100174.47;4878675;29;19919;-96
2023/12/05 04:23:52;;;;;;;;;;;;;;;1.51;100.00;100170.38;4883687;29;20278;-96
2023/12/05 04:26:19;;;;;;;;;;;;;;;1.50;100.00;100170.47;4894248;29;19915;-95
2023/12/05 04:28:45;;;;;;;;;;;;;;;1.53;100.00;100178.09;4863482;29;19919;-94
2023/12/05 04:31:11;;;;;;;;;;;;;;;1.58;100.00;100179.47;4884907;29;19922;-95
2023/12/05 04:33:40;;;;;;;;;;;;;;;1.68;100.00;100184.97;4892620;29;19915;-95
2023/12/05 04:36:07;;;;;;;;;;;;;;;1.77;100.00;100182.75;4885639;29;19921;-95
2023/12/05 04:38:36;;;;;;;;;;;;;;;1.83;100.00;100177.16;4901015;29;19922;-95
2023/12/05 04:41:02;;;;;;;;;;;;;;;1.87;100.00;100183.84;4884996;29;19915;-95
2023/12/05 04:43:28;;;;;;;;;;;;;;;1.90;100.00;100186.25;4883938;29;19930;-95
2023/12/05 04:45:53;;;;;;;;;;;;;;;1.92;100.00;100183.56;4885884;29;19921;-95
2023/12/05 04:48:19;;;;;;;;;;;;;;;1.94;100.00;100181.72;4888599;29;20004;-95
2023/12/05 04:50:44;;;;;;;;;;;;;;;1.92;100.00;100179.19;4901131;29;19974;-95
2023/12/05 04:53:10;;;;;;;;;;;;;;;1.96;100.00;100185.03;4901348;29;19971;-94
2023/12/05 04:55:36;;;;;;;;;;;;;;;2.01;100.00;100187.38;4886001;29;19915;-95
2023/12/05 04:58:02;;;;;;;;;;;;;;;2.07;100.00;100193.03;4918907;29;19915;-95
2023/12/05 05:00:27;;;;;;;;;;;;;;;2.09;100.00;100183.34;4883197;29;19922;-94
2023/12/05 05:02:53;;;;;;;;;;;;;;;2.09;100.00;100183.34;4901750;29;19942;-94
2023/12/05 05:05:19;;;;;;;;;;;;;;;2.10;100.00;100186.81;4891134;29;19919;-95
2023/12/05 05:07:44;;;;;;;;;;;;;;;2.05;100.00;100192.31;4894683;29;19966;-95
2023/12/05 05:10:10;;;;;;;;;;;;;;;2.01;100.00;100197.81;4886712;29;19914;-95
2023/12/05 05:12:35;;;;;;;;;;;;;;;1.97;100.00;100204.97;4901836;29;20398;-95
2023/12/05 05:15:01;;;;;;;;;;;;;;;1.95;100.00;100204.22;4889711;29;19915;-95
2023/12/05 05:17:27;;;;;;;;;;;;;;;1.90;100.00;100209.72;4899831;29;19914;-96
2023/12/05 05:19:52;;;;;;;;;;;;;;;1.87;100.00;100217.72;4888557;29;19915;-95
2023/12/05 05:22:18;;;;;;;;;;;;;;;1.88;100.00;100223.78;4889348;29;19954;-95
2023/12/05 05:24:44;;;;;;;;;;;;;;;1.83;100.00;100224.06;4871187;29;20162;-95
2023/12/05 05:27:09;;;;;;;;;;;;;;;1.79;100.00;100225.16;4871624;29;19925;-95
2023/12/05 05:29:35;;;;;;;;;;;;;;;1.75;100.00;100224.53;4886293;29;19915;-96
2023/12/05 05:32:01;;;;;;;;;;;;;;;1.75;100.00;100234.13;4886602;29;19983;-96
2023/12/05 05:34:26;;;;;;;;;;;;;;;1.73;100.00;100227.25;4893218;29;19914;-95
2023/12/05 05:36:52;;;;;;;;;;;;;;;1.71;100.00;100231.69;4872791;29;20092;-96
2023/12/05 05:39:17;;;;;;;;;;;;;;;1.72;100.00;100235.16;4887241;29;19966;-95
2023/12/05 05:41:43;;;;;;;;;;;;;;;1.72;100.00;100232.53;4884680;29;19920;-96
2023/12/05 05:44:09;;;;;;;;;;;;;;;1.77;100.00;100240.09;4886860;29;19915;-96
2023/12/05 05:46:35;;;;;;;;;;;;;;;1.82;100.00;100238.00;4902587;29;19926;-95
2023/12/05 05:49:01;;;;;;;;;;;;;;;1.82;100.00;100241.47;4892874;29;19915;-95
2023/12/05 05:51:26;;;;;;;;;;;;;;;1.82;100.00;100243.22;4886218;29;20010;-95
2023/12/05 05:53:53;;;;;;;;;;;;;;;1.81;100.00;100250.22;4871772;29;19922;-96
2023/12/05 05:56:19;;;;;;;;;;;;;;;1.88;100.00;100255.06;4870494;29;20338;-96
2023/12/05 05:58:45;;;;;;;;;;;;;;;1.90;100.00;100254.03;4883361;29;19920;-95
2023/12/05 06:01:11;;;;;;;;;;;;;;;1.93;100.00;100251.25;4874241;29;19967;-96
2023/12/05 06:03:37;;;;;;;;;;;;;;;1.91;100.00;100252.28;4866239;29;19915;-95
2023/12/05 06:06:03;;;;;;;;;;;;;;;1.91;100.00;100253.09;4869204;29;19941;-94
2023/12/05 06:08:29;;;;;;;;;;;;;;;2.01;100.00;100250.78;4893704;29;19923;-95
2023/12/05 06:10:54;;;;;;;;;;;;;;;2.04;100.00;100249.75;4866546;29;19970;-95
2023/12/05 06:13:20;;;;;;;;;;;;;;;2.06;100.00;100253.94;4880805;29;19915;-95
2023/12/05 06:15:45;;;;;;;;;;;;;;;2.14;100.00;100255.22;4860622;29;19920;-94
2023/12/05 06:18:15;;;;;;;;;;;;;;;2.19;100.00;100255.78;4883401;29;19966;-95
2023/12/05 06:20:42;;;;;;;;;;;;;;;2.21;100.00;100259.16;4867642;29;19922;-95
2023/12/05 06:23:07;;;;;;;;;;;;;;;2.23;100.00;100259.88;4881388;29;20398;-94
2023/12/05 06:25:33;;;;;;;;;;;;;;;2.23;100.00;100268.56;4882749;29;19957;-96
2023/12/05 06:27:59;;;;;;;;;;;;;;;2.23;100.00;100271.16;4881353;29;19915;-94
2023/12/05 06:30:25;;;;;;;;;;;;;;;2.28;100.00;100270.88;4867903;29;20010;-95
2023/12/05 06:32:50;;;;;;;;;;;;;;;2.28;100.00;100267.44;4886827;29;19915;-96
2023/12/05 06:35:16;;;;;;;;;;;;;;;2.27;100.00;100274.41;4891454;29;20002;-95
2023/12/05 06:37:42;;;;;;;;;;;;;;;2.25;100.00;100268.44;4901228;29;19921;-95
2023/12/05 06:40:08;;;;;;;;;;;;;;;2.25;100.00;100271.06;4884212;29;19915;-95
2023/12/05 06:42:34;;;;;;;;;;;;;;;2.26;100.00;100270.16;4882875;29;19937;-94
2023/12/05 06:45:00;;;;;;;;;;;;;;;2.32;100.00;100276.75;4858256;29;19919;-96
2023/12/05 06:47:25;;;;;;;;;;;;;;;2.33;100.00;100281.88;4864534;29;20014;-96
2023/12/05 06:49:51;;;;;;;;;;;;;;;2.37;100.00;100279.06;4882665;29;19915;-95
2023/12/05 06:52:16;;;;;;;;;;;;;;;2.44;100.00;100281.19;4882976;29;19916;-95
2023/12/05 06:54:42;;;;;;;;;;;;;;;2.49;100.00;100288.72;4890028;29;19922;-94
2023/12/05 06:57:08;;;;;;;;;;;;;;;2.55;100.00;100284.94;4867805;29;19922;-94
2023/12/05 06:59:34;;;;;;;;;;;;;;;2.62;100.00;100285.34;4881881;29;19915;-96
2023/12/05 07:02:00;;;;;;;;;;;;;;;2.66;100.00;100289.47;4892581;29;19923;-95
2023/12/05 07:04:25;;;;;;;;;;;;;;;2.70;100.00;100291.78;4880096;29;19975;-95
2023/12/05 07:06:51;;;;;;;;;;;;;;;2.76;100.00;100293.16;4868089;29;19962;-95
2023/12/05 07:09:18;;;;;;;;;;;;;;;2.78;100.00;100296.50;4868622;29;19975;-95
2023/12/05 07:11:44;;;;;;;;;;;;;;;2.81;100.00;100291.09;4880180;29;20216;-95
2023/12/05 07:14:12;;;;;;;;;;;;;;;2.82;100.00;100292.75;4883733;29;19970;-95
2023/12/05 07:16:38;;;;;;;;;;;;;;;2.84;100.00;100295.28;4864865;29;21317;-95
2023/12/05 07:19:04;;;;;;;;;;;;;;;2.85;100.00;100295.19;4865130;29;19916;-95
2023/12/05 07:21:29;;;;;;;;;;;;;;;2.88;100.00;100299.38;4863287;29;19930;-95
2023/12/05 07:23:55;;;;;;;;;;;;;;;2.90;100.00;100307.94;4864907;29;19923;-94
2023/12/05 07:26:20;;;;;;;;;;;;;;;2.93;100.00;100306.91;4896085;29;19915;-95
2023/12/05 07:28:46;;;;;;;;;;;;;;;2.90;100.00;100302.72;4885623;29;19946;-95
2023/12/05 07:31:12;;;;;;;;;;;;;;;2.98;100.00;100303.06;4863821;29;19927;-95
2023/12/05 07:33:38;;;;;;;;;;;;;;;3.04;100.00;100301.81;4876321;29;19915;-96
2023/12/05 07:36:04;;;;;;;;;;;;;;;3.07;100.00;100299.00;4862782;29;19916;-96
2023/12/05 07:38:30;;;;;;;;;;;;;;;3.07;100.00;100293.78;4849706;29;19919;-96
2023/12/05 07:40:55;;;;;;;;;;;;;;;3.12;100.00;100303.13;4872038;29;19926;-96
2023/12/05 07:43:21;;;;;;;;;;;;;;;3.11;100.00;100297.03;4875420;29;20006;-96
2023/12/05 07:45:46;;;;;;;;;;;;;;;3.12;100.00;100298.75;4879646;29;20051;-96
2023/12/05 07:48:12;;;;;;;;;;;;;;;3.14;100.00;100306.47;4852180;29;20299;-94
2023/12/05 07:50:37;;;;;;;;;;;;;;;3.16;100.00;100304.59;4879284;29;19915;-94
2023/12/05 07:53:03;;;;;;;;;;;;;;;3.17;100.00;100304.47;4892315;29;20456;-94
2023/12/05 07:55:29;;;;;;;;;;;;;;;3.20;100.00;100306.91;4903302;29;19922;-95
2023/12/05 07:57:54;;;;;;;;;;;;;;;3.18;100.00;100311.41;4887019;29;20518;-95
2023/12/05 08:00:20;;;;;;;;;;;;;;;3.18;100.00;100319.25;4880903;29;19926;-94
2023/12/05 08:02:46;;;;;;;;;;;;;;;3.16;100.00;100313.25;4876486;29;19930;-95
2023/12/05 08:05:12;;;;;;;;;;;;;;;3.17;100.00;100321.94;4880011;29;20270;-96
2023/12/05 08:07:40;;;;;;;;;;;;;;;3.18;100.00;100328.84;4876744;29;19915;-96
2023/12/05 08:10:06;;;;;;;;;;;;;;;3.20;100.00;100334.81;4871831;29;19984;-96
2023/12/05 08:12:33;;;;;;;;;;;;;;;3.17;100.00;100329.78;4880285;29;19919;-96
2023/12/05 08:14:59;;;;;;;;;;;;;;;3.14;100.00;100335.22;4882422;29;19915;-95
2023/12/05 08:17:24;;;;;;;;;;;;;;;3.08;100.00;100339.88;4863438;29;19945;-96
2023/12/05 08:19:50;;;;;;;;;;;;;;;3.08;100.00;100334.66;4851817;29;20371;-96
2023/12/05 08:22:16;;;;;;;;;;;;;;;3.00;100.00;100336.06;4859865;29;19927;-95
2023/12/05 08:24:41;;;;;;;;;;;;;;;2.93;100.00;100338.25;4898348;29;19979;-96
2023/12/05 08:27:07;;;;;;;;;;;;;;;2.84;100.00;100348.34;4867850;29;20319;-96
2023/12/05 08:29:33;;;;;;;;;;;;;;;2.79;100.00;100354.75;4880450;29;19915;-96
2023/12/05 08:31:59;;;;;;;;;;;;;;;2.77;100.00;100340.97;4882946;29;19916;-96
2023/12/05 08:34:24;;;;;;;;;;;;;;;2.74;100.00;100342.00;4865700;29;19924;-96
2023/12/05 08:36:50;;;;;;;;;;;;;;;2.75;100.00;100343.69;4884268;29;19927;-95
2023/12/05 08:39:15;;;;;;;;;;;;;;;2.77;100.00;100336.59;4864478;29;19915;-96
2023/12/05 08:41:41;;;;;;;;;;;;;;;2.77;100.00;100328.75;4861588;29;19920;-96
2023/12/05 08:44:07;;;;;;;;;;;;;;;2.79;100.00;100329.50;4879403;29;19979;-96
2023/12/05 08:46:32;;;;;;;;;;;;;;;2.84;100.00;100335.28;4894682;29;19916;-96
2023/12/05 08:48:58;;;;;;;;;;;;;;;2.88;100.00;100332.47;4878571;29;20426;-96
2023/12/05 08:51:24;;;;;;;;;;;;;;;2.93;100.00;100344.28;4866743;29;19991;-96
2023/12/05 08:53:49;;;;;;;;;;;;;;;2.96;100.00;100340.66;4855664;29;19955;-96
2023/12/05 08:56:15;;;;;;;;;;;;;;;2.97;100.00;100343.19;4874464;29;19922;-96
2023/12/05 08:58:42;;;;;;;;;;;;;;;2.91;100.00;100343.56;4867561;29;19951;-96
2023/12/05 09:01:11;;;;;;;;;;;;;;;2.79;100.00;100339.94;4895559;29;20340;-96
2023/12/05 09:03:38;;;;;;;;;;;;;;;2.68;100.00;100339.78;4894974;29;19930;-96
2023/12/05 09:06:10;;;;;;;;;;;;;;;2.59;100.00;100344.66;4867284;29;19920;-96
2023/12/05 09:08:36;;;;;;;;;;;;;;;2.53;100.00;100345.03;4875194;29;20013;-96
2023/12/05 09:11:01;;;;;;;;;;;;;;;2.52;100.00;100347.69;4872834;29;19938;-96
2023/12/05 09:13:27;;;;;;;;;;;;;;;2.52;100.00;100347.69;4871665;29;19915;-96
2023/12/05 09:15:54;;;;;;;;;;;;;;;2.51;100.00;100346.03;4852617;29;20367;-96
2023/12/05 09:18:20;;;;;;;;;;;;;;;2.52;100.00;100350.31;4869940;29;19900;-96
2023/12/05 09:20:46;;;;;;;;;;;;;;;2.56;100.00;100355.28;4874326;29;19923;-96
2023/12/05 09:23:12;;;;;;;;;;;;;;;2.60;100.00;100351.53;4891557;29;19943;-96
2023/12/05 09:25:38;;;;;;;;;;;;;;;2.65;100.00;100356.47;4873509;29;20279;-96
2023/12/05 09:28:04;;;;;;;;;;;;;;;2.75;100.00;100358.50;4867932;29;19922;-96
2023/12/05 09:30:30;;;;;;;;;;;;;;;2.82;100.00;100362.44;4855160;29;20400;-96
2023/12/05 09:32:56;;;;;;;;;;;;;;;2.87;100.00;100368.19;4859485;29;19915;-96
2023/12/05 09:35:21;;;;;;;;;;;;;;;2.92;100.00;100368.72;4903754;29;19915;-96
2023/12/05 09:37:47;;;;;;;;;;;;;;;2.97;100.00;100365.84;4882369;29;19941;-96
2023/12/05 09:40:13;;;;;;;;;;;;;;;3.02;100.00;100369.00;4864911;29;20314;-96
2023/12/05 09:42:42;;;;;;;;;;;;;;;3.07;100.00;100366.09;4866403;29;19924;-96
2023/12/05 09:45:11;;;;;;;;;;;;;;;3.13;100.00;100364.84;4871432;29;19927;-96
2023/12/05 09:47:39;;;;;;;;;;;;;;;3.17;100.00;100376.81;4883176;29;19916;-96
2023/12/05 09:50:05;;;;;;;;;;;;;;;3.20;100.00;100374.81;4865487;29;20022;-96
2023/12/05 09:52:31;;;;;;;;;;;;;;;3.25;100.00;100378.91;4866659;29;19959;-96
2023/12/05 09:54:58;;;;;;;;;;;;;;;3.30;100.00;100382.91;4878816;29;19924;-96
2023/12/05 09:57:25;;;;;;;;;;;;;;;3.35;100.00;100383.44;4879818;29;19941;-96
2023/12/05 09:59:51;;;;;;;;;;;;;;;3.43;100.00;100389.94;4863013;29;19951;-96
2023/12/05 10:02:18;;;;;;;;;;;;;;;3.49;100.00;100388.72;4864752;29;19955;-96
2023/12/05 10:04:45;;;;;;;;;;;;;;;3.54;100.00;100382.25;4869601;29;20386;-96
2023/12/05 10:07:11;;;;;;;;;;;;;;;3.57;100.00;100383.81;4877936;29;19916;-96
2023/12/05 10:09:41;;;;;;;;;;;;;;;3.64;100.00;100389.50;4889519;29;19939;-96
2023/12/05 10:12:08;;;;;;;;;;;;;;;3.69;100.00;100397.88;4877659;29;19922;-96
2023/12/05 10:14:34;;;;;;;;;;;;;;;3.75;100.00;100400.09;4888875;29;20361;-96
2023/12/05 10:17:02;;;;;;;;;;;;;;;3.82;100.00;100408.38;4874663;29;19966;-96
2023/12/05 10:19:29;;;;;;;;;;;;;;;3.88;100.00;100414.97;4874543;29;19916;-96
2023/12/05 10:21:55;;;;;;;;;;;;;;;3.94;100.00;100417.16;4890860;29;19927;-96
2023/12/05 10:24:21;;;;;;;;;;;;;;;3.98;100.00;100426.50;4890437;29;19919;-96
2023/12/05 10:26:47;;;;;;;;;;;;;;;4.01;100.00;100426.28;4862631;29;19923;-96
2023/12/05 10:29:14;;;;;;;;;;;;;;;4.01;100.00;100428.91;4865007;29;19919;-96
2023/12/05 10:31:41;;;;;;;;;;;;;;;3.98;100.00;100423.88;4889220;29;19922;-96
2023/12/05 10:34:07;;;;;;;;;;;;;;;3.92;100.00;100419.03;4876105;29;20359;-96
2023/12/05 10:36:33;;;;;;;;;;;;;;;3.85;100.00;100421.25;4887716;29;19915;-96
2023/12/05 10:38:59;;;;;;;;;;;;;;;3.81;100.00;100422.34;4878432;29;19922;-96
2023/12/05 10:41:28;;;;;;;;;;;;;;;3.78;100.00;100431.25;4896735;29;19923;-96
2023/12/05 10:43:55;;;;;;;;;;;;;;;3.80;100.00;100425.94;4906706;29;20060;-96
2023/12/05 10:46:26;;;;;;;;;;;;;;;3.83;100.00;100429.19;4892348;29;20555;-96
2023/12/05 10:48:52;;;;;;;;;;;;;;;3.87;100.00;100427.19;4895345;29;19975;-96
2023/12/05 10:51:18;;;;;;;;;;;;;;;3.89;100.00;100421.84;4880052;29;19926;-96
2023/12/05 10:53:44;;;;;;;;;;;;;;;3.91;100.00;100427.81;4864508;29;19915;-96
2023/12/05 10:56:11;;;;;;;;;;;;;;;3.97;100.00;100422.19;4876422;29;20015;-96
2023/12/05 10:58:38;;;;;;;;;;;;;;;4.02;100.00;100420.13;4878175;29;19915;-96
2023/12/05 11:01:04;;;;;;;;;;;;;;;4.06;100.00;100418.13;4858324;29;20410;-96
2023/12/05 11:03:31;;;;;;;;;;;;;;;4.13;100.00;100423.78;4871373;29;20006;-96
2023/12/05 11:05:57;;;;;;;;;;;;;;;4.19;100.00;100420.75;4879943;29;19920;-96
2023/12/05 11:08:23;;;;;;;;;;;;;;;4.22;100.00;100418.78;4884477;29;19923;-96
2023/12/05 11:10:51;;;;;;;;;;;;;;;4.26;100.00;100408.09;4889055;29;19915;-96
2023/12/05 11:13:17;;;;;;;;;;;;;;;4.28;100.00;100407.06;4886810;29;19940;-96
2023/12/05 11:15:44;;;;;;;;;;;;;;;4.33;100.00;100404.13;4871499;29;19922;-96
2023/12/05 11:18:09;;;;;;;;;;;;;;;4.38;100.00;100403.81;4874855;29;19923;-96
2023/12/05 11:20:55;;;;;;;;;;;;;;;4.47;100.00;100403.19;4892123;29;19975;-96
2023/12/05 11:23:27;;;;;;;;;;;;;;;4.57;100.00;100403.41;4883499;29;20374;-96
2023/12/05 11:26:16;;;;;;;;;;;;;;;4.65;100.00;100403.69;4890790;29;19919;-96
2023/12/05 11:28:58;;;;;;;;;;;;;;;4.70;100.00;100405.97;4855875;29;19915;-96
2023/12/05 11:31:33;;;;;;;;;;;;;;;4.67;100.00;100403.56;4891377;29;20425;-96
2023/12/05 11:34:12;;;;;;;;;;;;;;;4.64;100.00;100398.56;4910426;29;19944;-96
2023/12/05 11:36:51;;;;;;;;;;;;;;;4.66;100.00;100404.53;4886073;29;19915;-96
2023/12/05 11:39:17;;;;;;;;;;;;;;;4.69;100.00;100397.31;4878128;29;19926;-96
2023/12/05 11:42:03;;;;;;;;;;;;;;;4.72;100.00;100404.09;4873332;29;20064;-96
2023/12/05 11:44:34;;;;;;;;;;;;;;;4.76;100.00;100410.78;4854638;29;19922;-96
2023/12/05 11:47:04;;;;;;;;;;;;;;;4.79;100.00;100415.84;4882700;29;19922;-96
2023/12/05 11:49:38;;;;;;;;;;;;;;;4.77;100.00;100414.25;4905919;29;20006;-96
2023/12/05 11:52:09;;;;;;;;;;;;;;;4.75;100.00;100413.50;4919110;29;19974;-96
2023/12/05 11:54:35;;;;;;;;;;;;;;;4.76;100.00;100415.19;4872940;29;19916;-96
2023/12/05 12:03:25;;;;;;;;;;;;;;;4.77;100.00;100403.78;5308061;23;19934;-93
2023/12/05 12:09:36;;;;;;;;;;;;;;;4.86;100.00;100397.88;5057541;23;19924;-93
2023/12/05 12:12:53;;;;;;;;;;;;;;;4.96;100.00;100396.31;4863957;29;19969;-92
2023/12/05 12:15:46;;;;;;;;;;;;;;;5.02;100.00;100388.94;4870431;29;20363;-93
2023/12/05 12:18:29;;;;;;;;;;;;;;;5.11;100.00;100384.84;4879165;29;19922;-92
2023/12/05 12:21:20;;;;;;;;;;;;;;;5.19;100.00;100385.94;4880920;29;20010;-92
2023/12/05 12:24:09;;;;;;;;;;;;;;;5.28;100.00;100381.84;4836358;29;19920;-93
2023/12/05 12:33:31;;;;;;;;;;;;;;;5.44;100.00;100375.47;4877702;29;19924;-92
2023/12/05 12:36:23;;;;;;;;;;;;;;;5.51;100.00;100378.50;4872676;29;19916;-92
2023/12/05 12:39:15;;;;;;;;;;;;;;;5.63;100.00;100374.09;4862882;29;20006;-92
2023/12/05 12:45:24;;;;;;;;;;;;;;;5.80;100.00;100378.94;4855804;29;20003;-93
2023/12/05 12:48:10;;;;;;;;;;;;;;;5.86;100.00;100376.81;4879197;29;19939;-93
2023/12/05 12:54:39;;;;;;;;;;;;;;;;;;;;;
2023/12/05 12:57:24;;;;;;;;;;;;;;;6.13;100.00;100379.16;4872188;29;19920;-91
2023/12/05 13:03:10;;;;;;;;;;;;;;;6.36;100.00;100375.72;4890873;29;19944;-91
2023/12/05 13:06:11;;;;;;;;;;;;;;;6.47;100.00;100375.72;4880133;29;19980;-90
2023/12/05 13:09:02;;;;;;;;;;;;;;;6.36;100.00;100365.22;4862222;29;19927;-90
2023/12/05 13:11:35;;;;;;;;;;;;;;;6.23;100.00;100363.53;4873563;29;21022;-90
2023/12/05 13:14:17;;;;;;;;;;;;;;;6.15;100.00;100368.53;4867638;29;19986;-90
2023/12/05 13:16:49;;;;;;;;;;;;;;;6.05;100.00;100365.81;4893299;29;19916;-90
2023/12/05 13:19:27;;;;;;;;;;;;;;;5.92;100.00;100365.84;4893107;29;19916;-89
2023/12/05 13:22:01;;;;;;;;;;;;;;;5.86;100.00;100372.38;4882235;29;19927;-90
2023/12/05 13:24:42;;;;;;;;;;;;;;;5.85;100.00;100375.97;4879113;29;19979;-90
2023/12/05 13:27:20;;;;;;;;;;;;;;;5.79;100.00;100381.69;4868509;29;19986;-93
2023/12/05 13:29:54;;;;;;;;;;;;;;;5.84;100.00;100387.41;4867028;29;19915;-91
2023/12/05 13:32:20;;;;;;;;;;;;;;;5.91;100.00;100382.56;4851145;29;19915;-90
2023/12/05 13:34:54;;;;;;;;;;;;;;;5.93;100.00;100380.63;4868010;29;20040;-93